Airfield :
LOGIN :

Register | Disclaimer

   EN    FR    IT 

 










Legend :    VFR   Marginal VFR   IFR   Intensive IFR   Very Intensive IFR
Visi :
Ceiling :
>= 8 km
>= 3000ft
5 to 8 km
1000 to 3000 ft
1500m to 5 km
500 to 1000 ft
800 to 1500m
200 to 500 ft
< 800m
< 200 ft
Symbols :   Thunderstorms  Fog  Heavy snow  Heavy precipitations  Wind > 20 kt
SIGMETs :     Misc.  Thunderstorms  Icing  Turbulence  Mountain Waves  Volcanic Ashes






- Airport Elevation : 465 ft
- IATA code : OMR


LROD - Oradea International

CURRENT METAR :
  • 180800Z VRB01KT 0250 R19/0300N FZFG VV001 M05/M05 Q1027 R01/19//95

EXPIRED METARs :
  • 180730Z 28003KT 0200 R19/0250N FZFG VV002 M05/M05 Q1027 R01/19//95
  • 180700Z VRB02KT 0350 R19/0450N FZFG VV002 M06/M06 Q1027 R01/19//95
  • 180630Z VRB01KT 0350 R19/0400N FZFG VV001 M06/M06 Q1027 R01/19//95
  • 180600Z 11002KT 0400 R19/0450N FZFG VV001 M06/M06 Q1027 R01/19//95
  • 180530Z 20002KT 0350 R19/0400N FZFG VV001 M06/M06 Q1027 R01/19//95

TAF TAF LROD
Valid from the 18 at 06:00 until the 18 at 15:00 UTC


180500Z 1806/1815 VRB04KT 0350 FZFG VV001
BECMG 1807/1809 0800 BKN002
BECMG 1809/1811 3000 BR BKN005
PROB30
TEMPO 1811/1815 7000 NSW SCT010



MET'MAP, your aeronautical weather chart ! - Copyright ORBIFLY December 2007 - Disclaimer

ORBIFLY MET'MAP TEAM :

Programming & Development : Alexandra Zaïnal
Concept & original design : Baudouin d'Aumeries
Assistance for programming : Marc-Olivier Méhu
Technical & hardware support : Manuel Goepfert

Contact : metmap@orbifly.com




SOURCES & CREDITS :

   NOAA